createdAt,value
2018-07-23T00:00:28.993Z,17
2018-07-23T00:05:31.441Z,17
2018-07-23T00:10:33.721Z,17
2018-07-23T00:15:36.235Z,18
2018-07-23T00:20:38.630Z,18
2018-07-23T00:25:41.192Z,18
2018-07-23T00:30:43.583Z,18
2018-07-23T00:35:45.983Z,17
2018-07-23T00:40:48.435Z,17
2018-07-23T00:45:51.073Z,19
2018-07-23T00:50:53.341Z,19
2018-07-23T00:55:55.770Z,19
2018-07-23T01:00:58.210Z,21
2018-07-23T01:06:00.632Z,20
2018-07-23T01:11:03.185Z,22
2018-07-23T01:16:05.876Z,21
2018-07-23T01:21:08.089Z,20
2018-07-23T01:26:10.411Z,20
2018-07-23T01:31:12.837Z,20
2018-07-23T01:36:15.342Z,22
2018-07-23T01:41:17.762Z,22
2018-07-23T01:46:20.188Z,22
2018-07-23T01:51:22.845Z,23
2018-07-23T01:56:25.089Z,23
2018-07-23T02:01:27.519Z,23
2018-07-23T02:06:30.097Z,22
2018-07-23T02:11:32.446Z,23
2018-07-23T02:16:34.852Z,23
2018-07-23T02:21:37.390Z,23.5
2018-07-23T02:26:39.784Z,23
2018-07-23T02:31:42.210Z,25
2018-07-23T02:36:44.631Z,24
2018-07-23T02:41:47.106Z,25.5
2018-07-23T02:46:49.516Z,24
2018-07-23T02:51:52.013Z,25
2018-07-23T02:56:54.417Z,25.5
2018-07-23T03:01:57.212Z,26
2018-07-23T03:06:59.681Z,24
2018-07-23T03:12:03.295Z,24
2018-07-23T03:17:04.492Z,24
2018-07-23T03:22:06.667Z,24
2018-07-23T03:27:09.210Z,24
2018-07-23T03:32:12.079Z,24
2018-07-23T03:37:14.006Z,23
2018-07-23T03:42:17.003Z,23
2018-07-23T03:47:18.894Z,23
2018-07-23T03:52:21.679Z,24
2018-07-23T03:57:24.662Z,25
2018-07-23T04:02:27.293Z,23
2018-07-23T04:07:28.721Z,24
2018-07-23T04:17:33.556Z,24
2018-07-23T04:22:35.986Z,23
2018-07-23T04:27:38.429Z,23
2018-07-23T04:32:41.032Z,23
2018-07-23T04:37:43.364Z,23
2018-07-23T04:42:45.803Z,22
2018-07-23T04:47:48.224Z,23
2018-07-23T04:52:50.700Z,22
2018-07-23T04:57:53.210Z,22
2018-07-23T05:02:55.805Z,21
2018-07-23T05:07:58.229Z,22
2018-07-23T05:13:00.591Z,21
2018-07-23T05:18:02.901Z,21
2018-07-23T05:23:05.353Z,21
2018-07-23T05:28:07.876Z,22
2018-07-23T05:33:10.277Z,22
2018-07-23T05:38:12.752Z,22
2018-07-23T05:43:15.164Z,22
2018-07-23T05:48:20.339Z,22
2018-07-23T05:53:20.106Z,19
2018-07-23T05:58:22.476Z,18.5
2018-07-23T06:03:24.926Z,19
2018-07-23T06:08:27.363Z,20
2018-07-23T06:13:30.269Z,19
2018-07-23T06:18:32.272Z,19
2018-07-23T06:23:34.707Z,16
2018-07-23T06:28:37.640Z,16
2018-07-23T06:33:39.640Z,16
2018-07-23T06:38:42.057Z,17
2018-07-23T06:43:45.087Z,18
2018-07-23T06:48:46.955Z,14
2018-07-23T06:53:49.412Z,14
2018-07-23T06:58:51.844Z,12
2018-07-23T07:03:54.512Z,14
2018-07-23T07:08:56.721Z,12
2018-07-23T07:13:59.235Z,12
2018-07-23T07:19:02.152Z,14
2018-07-23T07:24:04.120Z,16
2018-07-23T07:29:06.510Z,14
2018-07-23T07:34:09.525Z,13
2018-07-23T07:39:11.576Z,11
2018-07-23T07:54:18.769Z,13
2018-07-23T07:59:21.193Z,15
2018-07-23T08:04:23.647Z,12.5
2018-07-23T08:09:26.093Z,12
2018-07-23T08:14:28.554Z,12
2018-07-23T08:19:31.006Z,11
2018-07-23T08:24:33.427Z,10
2018-07-23T08:29:36.009Z,9
2018-07-23T08:39:40.823Z,7.5
2018-07-23T08:44:43.291Z,7
2018-07-23T08:49:45.664Z,7
2018-07-23T08:54:48.108Z,6
2018-07-23T08:59:50.671Z,7
2018-07-23T09:04:53.049Z,6
2018-07-23T09:09:55.462Z,7
2018-07-23T09:14:57.944Z,7
2018-07-23T09:20:00.553Z,6
2018-07-23T09:25:02.873Z,6
2018-07-23T09:30:05.617Z,7
2018-07-23T09:35:07.832Z,7
2018-07-23T09:40:10.360Z,7
2018-07-23T09:45:13.008Z,7
2018-07-23T09:50:15.475Z,7
2018-07-23T09:55:17.527Z,7
2018-07-23T10:00:20.031Z,8
2018-07-23T10:05:22.367Z,5
2018-07-23T10:10:24.913Z,6
2018-07-23T10:15:27.331Z,6
2018-07-23T10:20:29.842Z,5
2018-07-23T10:25:32.212Z,5
2018-07-23T10:30:34.720Z,6
2018-07-23T10:35:37.078Z,6
2018-07-23T10:40:39.519Z,7
2018-07-23T10:45:42.182Z,6
2018-07-23T10:50:44.393Z,5
2018-07-23T10:55:46.845Z,6
2018-07-23T11:00:49.372Z,6
2018-07-23T11:05:51.743Z,5
2018-07-23T11:10:54.237Z,5
2018-07-23T11:15:56.944Z,5
2018-07-23T11:20:59.113Z,6
2018-07-23T11:26:01.817Z,6
2018-07-23T11:31:03.997Z,5
2018-07-23T11:36:06.697Z,5
2018-07-23T11:41:08.886Z,5
2018-07-23T11:46:24.423Z,5
2018-07-23T11:51:14.029Z,4
2018-07-23T11:56:16.272Z,5
2018-07-23T12:01:18.678Z,6
2018-07-23T12:06:21.126Z,6
2018-07-23T12:11:23.591Z,5
2018-07-23T12:16:26.012Z,5
2018-07-23T12:21:28.432Z,5
2018-07-23T12:26:31.196Z,4
2018-07-23T12:31:33.381Z,4
2018-07-23T12:36:35.770Z,4
2018-07-23T12:41:38.268Z,5
2018-07-23T12:46:40.730Z,5
2018-07-23T12:51:43.186Z,6
2018-07-23T12:56:45.604Z,5
2018-07-23T13:01:48.042Z,5
2018-07-23T13:06:50.475Z,5
2018-07-23T13:11:53.051Z,5
2018-07-23T13:16:55.363Z,5
2018-07-23T13:21:57.792Z,5
2018-07-23T13:32:02.927Z,5
2018-07-23T13:37:05.147Z,5
2018-07-23T13:42:07.759Z,5
2018-07-23T13:47:10.562Z,6
2018-07-23T13:52:12.553Z,6
2018-07-23T13:57:15.082Z,5
2018-07-23T14:02:17.453Z,6
2018-07-23T14:12:22.292Z,6
2018-07-23T14:17:24.714Z,6
2018-07-23T14:22:27.268Z,6
2018-07-23T14:27:29.679Z,6
2018-07-23T14:32:32.171Z,6
2018-07-23T14:37:34.516Z,5
2018-07-23T14:42:36.969Z,7
2018-07-23T14:47:39.444Z,6
2018-07-23T14:52:41.832Z,6
2018-07-23T14:57:44.339Z,6
2018-07-23T15:02:46.769Z,6
2018-07-23T15:07:49.300Z,5.5
2018-07-23T15:12:51.769Z,5
2018-07-23T15:17:54.132Z,5
2018-07-23T15:22:56.615Z,4
2018-07-23T15:27:58.994Z,5
2018-07-23T15:33:01.879Z,5
2018-07-23T15:38:03.866Z,5
2018-07-23T15:43:06.482Z,5
2018-07-23T15:48:08.978Z,5
2018-07-23T15:53:11.203Z,5
2018-07-23T15:58:13.781Z,4
2018-07-23T16:03:17.089Z,5
2018-07-23T16:08:18.613Z,5
2018-07-23T16:13:21.031Z,5
2018-07-23T16:18:23.547Z,5
2018-07-23T16:23:25.900Z,6
2018-07-23T16:28:28.443Z,5
2018-07-23T16:33:31.100Z,5
2018-07-23T16:38:33.273Z,5
2018-07-23T16:43:35.882Z,4
2018-07-23T16:48:38.127Z,4
2018-07-23T16:53:40.769Z,5
2018-07-23T16:58:43.289Z,5
2018-07-23T17:03:45.511Z,5
2018-07-23T17:08:47.937Z,4
2018-07-23T17:13:50.463Z,4
2018-07-23T17:18:53.251Z,4
2018-07-23T17:23:55.354Z,4
2018-07-23T17:28:57.764Z,4
2018-07-23T17:34:00.131Z,4
2018-07-23T17:39:02.621Z,4
2018-07-23T17:44:05.076Z,4
2018-07-23T17:49:07.558Z,4
2018-07-23T17:54:09.907Z,4
2018-07-23T17:59:12.525Z,4
2018-07-23T18:04:15.236Z,4
2018-07-23T18:09:17.254Z,5
2018-07-23T18:14:19.689Z,4
2018-07-23T18:19:22.362Z,5
2018-07-23T18:24:24.614Z,5
2018-07-23T18:29:27.298Z,4
2018-07-23T18:34:29.851Z,4
2018-07-23T18:39:32.202Z,4
2018-07-23T18:44:34.876Z,3.5
2018-07-23T18:49:36.971Z,4
2018-07-23T18:54:39.316Z,4
2018-07-23T18:59:41.832Z,4
2018-07-23T19:04:44.321Z,4
2018-07-23T19:09:46.649Z,4
2018-07-23T19:49:03.562Z,4
2018-07-23T19:54:06.148Z,5
2018-07-23T19:59:08.424Z,4
2018-07-23T20:04:10.883Z,5
2018-07-23T20:09:13.529Z,5
2018-07-23T20:14:15.759Z,5
2018-07-23T20:19:18.666Z,5
2018-07-23T20:24:20.921Z,5
2018-07-23T20:29:23.095Z,7
2018-07-23T20:34:25.544Z,6
2018-07-23T20:39:28.026Z,6
2018-07-23T20:44:30.398Z,6
2018-07-23T20:49:32.874Z,6
2018-07-23T20:54:35.279Z,5
2018-07-23T20:59:37.720Z,5
2018-07-23T21:04:40.229Z,6
2018-07-23T21:09:42.813Z,6
2018-07-23T21:14:45.184Z,6
2018-07-23T21:19:47.563Z,5
2018-07-23T21:24:50.060Z,6
2018-07-23T21:29:52.494Z,6
2018-07-23T21:34:54.843Z,6
2018-07-23T21:39:57.693Z,7
2018-07-23T21:44:59.947Z,6
2018-07-23T21:50:02.297Z,8
2018-07-23T21:55:04.628Z,7
2018-07-23T22:00:07.217Z,6
2018-07-23T22:05:09.499Z,7
2018-07-23T22:10:12.413Z,7
2018-07-23T22:15:14.466Z,7
2018-07-23T22:20:16.788Z,8
2018-07-23T22:25:19.301Z,8
2018-07-23T22:30:21.679Z,7
2018-07-23T22:35:24.109Z,8
2018-07-23T22:40:26.605Z,8
2018-07-23T22:45:29.024Z,8
2018-07-23T22:50:31.471Z,8
2018-07-23T22:55:33.856Z,8
2018-07-23T23:00:36.302Z,8
2018-07-23T23:05:38.824Z,8
2018-07-23T23:10:41.169Z,9
2018-07-23T23:15:43.711Z,9
2018-07-23T23:20:46.259Z,9
2018-07-23T23:25:48.489Z,9
2018-07-23T23:30:51.023Z,8
2018-07-23T23:35:53.502Z,9
2018-07-23T23:40:55.902Z,9
2018-07-23T23:45:58.351Z,8
2018-07-23T23:51:00.996Z,9
2018-07-23T23:56:03.456Z,9
